Worth, West Virginia
Current Conditions -  °F | °C
As of 9:01 AM on Monday 26 Jan 2015 (Local Time) from KBLF Reporting Station
Overcast Overcast  
Wind Chill: 39°   Ceiling: 1300
Heat Index: 39°   Visibility: 10mi
Dew Point: 32°   Wind: 3mph
Humidity: 76%   Direction: 250°WSW
Pressure: 29.62"   Gusts: NA
Location:  37.41°N, 81.39°W
Report Text: KBLF 261401Z AUTO 25003KT 10SM OVC013 04/00 A2962 RMK AO2 T00390000
Loading
Personal Weather Stations






























Interactive Weather Map New forecast layout! Learn more

10-Day Weather Forecast

Advertisements
Track Severe Weather on mobile